Time;durP1;ratioP1;P1;durP2;ratioP2;P2;SDS_P1;SDS_P2;PMS_P1;PMS_P2;Temp;Humidity;BMP_temperature;BMP_pressure;BME280_temperature;BME280_humidity;BME280_pressure;Samples;Min_cycle;Max_cycle;Signal;HPM_P1;HPM_P2
2022/08/29 00:00:44;;;;;;;7.70;5.80;;;18.70;99.90;;;;;;7377682;19;20428;-46
2022/08/29 00:03:14;;;;;;;12.03;6.77;;;18.90;99.90;;;;;;7373014;19;20376;-47
2022/08/29 00:05:43;;;;;;;8.53;6.73;;;18.80;99.90;;;;;;7380112;19;20380;-46
2022/08/29 00:08:15;;;;;;;9.53;7.20;;;18.90;99.90;;;;;;7378276;19;20420;-47
2022/08/29 00:10:45;;;;;;;9.77;6.00;;;19.10;99.90;;;;;;7356946;19;21342;-47
2022/08/29 00:13:16;;;;;;;7.27;6.37;;;19.00;99.90;;;;;;7369907;19;20424;-47
2022/08/29 00:15:45;;;;;;;6.83;6.13;;;19.00;99.90;;;;;;7371492;19;20902;-47
2022/08/29 00:18:15;;;;;;;10.37;6.97;;;19.00;99.90;;;;;;7371697;19;20599;-47
2022/08/29 00:20:45;;;;;;;11.50;6.60;;;18.90;99.90;;;;;;7381036;19;20368;-47
2022/08/29 00:23:18;;;;;;;7.13;6.30;;;18.80;99.90;;;;;;7379914;19;20417;-47
2022/08/29 00:25:50;;;;;;;8.60;6.93;;;18.80;99.90;;;;;;7377994;19;20383;-46
2022/08/29 00:28:20;;;;;;;8.20;7.07;;;18.60;99.90;;;;;;7377234;19;20946;-46
2022/08/29 00:30:50;;;;;;;9.47;6.37;;;18.60;99.90;;;;;;7374677;19;20372;-47
2022/08/29 00:33:19;;;;;;;7.80;6.20;;;18.70;99.90;;;;;;7379371;19;20386;-47
2022/08/29 00:35:49;;;;;;;9.53;7.07;;;18.60;99.90;;;;;;7378979;19;20376;-47
2022/08/29 00:38:24;;;;;;;8.80;6.63;;;18.40;99.90;;;;;;7378127;19;20384;-47
2022/08/29 00:40:58;;;;;;;9.97;7.53;;;18.50;99.90;;;;;;7376808;19;20376;-47
2022/08/29 00:43:30;;;;;;;8.20;6.40;;;18.70;99.90;;;;;;7378364;19;20372;-46
2022/08/29 00:46:09;;;;;;;8.67;6.00;;;18.60;99.90;;;;;;7375763;19;20421;-47
2022/08/29 00:48:41;;;;;;;7.87;5.97;;;18.60;99.90;;;;;;7379598;19;20953;-46
2022/08/29 00:51:17;;;;;;;6.50;5.80;;;18.30;99.90;;;;;;7378632;19;20368;-47
2022/08/29 00:53:53;;;;;;;7.97;6.10;;;18.40;99.90;;;;;;7380195;19;20393;-47
2022/08/29 00:56:23;;;;;;;9.70;6.67;;;18.60;99.90;;;;;;7380720;19;20411;-47
2022/08/29 00:58:55;;;;;;;11.00;7.57;;;18.70;99.90;;;;;;7373674;19;20372;-47
2022/08/29 01:01:25;;;;;;;9.60;7.10;;;18.60;99.90;;;;;;7372070;19;20436;-47
2022/08/29 01:03:55;;;;;;;7.80;6.03;;;18.50;99.90;;;;;;7376948;19;20395;-47
2022/08/29 01:06:28;;;;;;;8.60;7.77;;;18.40;99.90;;;;;;7377003;19;20396;-47
2022/08/29 01:09:01;;;;;;;8.50;6.73;;;18.20;99.90;;;;;;7380418;19;20910;-47
2022/08/29 01:14:14;;;;;;;9.20;5.90;;;18.30;99.90;;;;;;7375999;19;20364;-46
2022/08/29 01:16:44;;;;;;;9.47;7.00;;;18.20;99.90;;;;;;7374666;19;20771;-46
2022/08/29 01:19:20;;;;;;;6.93;6.23;;;18.10;99.90;;;;;;7379906;19;20372;-46
2022/08/29 01:21:58;;;;;;;7.80;7.00;;;18.10;99.90;;;;;;7378368;19;20739;-46
2022/08/29 01:24:40;;;;;;;7.03;6.03;;;17.90;99.90;;;;;;7378630;19;20380;-46
2022/08/29 01:27:10;;;;;;;7.20;6.47;;;17.90;99.90;;;;;;7375698;19;20884;-46
2022/08/29 01:29:42;;;;;;;10.00;6.30;;;18.10;99.90;;;;;;7374735;19;20412;-47
2022/08/29 01:32:13;;;;;;;7.90;7.10;;;18.20;99.90;;;;;;7375065;19;20376;-46
2022/08/29 01:34:44;;;;;;;7.00;6.30;;;18.20;99.90;;;;;;7381706;19;20452;-47
2022/08/29 01:37:17;;;;;;;10.90;7.73;;;18.20;99.90;;;;;;7373303;19;20376;-46
2022/08/29 01:39:49;;;;;;;8.73;6.40;;;18.10;99.90;;;;;;7377376;19;20487;-46
2022/08/29 01:42:21;;;;;;;8.10;6.03;;;18.20;99.90;;;;;;7378514;19;20373;-46
2022/08/29 01:44:52;;;;;;;8.97;7.30;;;18.30;99.90;;;;;;7375320;19;20383;-46
2022/08/29 01:47:22;;;;;;;9.77;6.57;;;18.40;99.90;;;;;;7373909;19;20391;-46
2022/08/29 01:49:52;;;;;;;9.87;7.30;;;18.50;99.90;;;;;;7380328;19;20380;-46
2022/08/29 01:52:22;;;;;;;10.10;8.30;;;18.30;99.90;;;;;;7375907;19;20376;-46
2022/08/29 01:54:55;;;;;;;9.53;7.00;;;18.10;99.90;;;;;;7373062;19;20920;-46
2022/08/29 01:57:24;;;;;;;8.60;6.77;;;18.00;99.90;;;;;;7377369;19;20396;-46
2022/08/29 01:59:54;;;;;;;7.97;6.93;;;17.90;99.90;;;;;;7372066;19;20404;-46
2022/08/29 02:02:26;;;;;;;12.63;7.90;;;17.90;99.90;;;;;;7368101;19;20443;-46
2022/08/29 02:04:57;;;;;;;8.23;6.73;;;18.00;99.90;;;;;;7377082;19;20399;-46
2022/08/29 02:07:28;;;;;;;9.90;7.73;;;18.10;99.90;;;;;;7379422;19;20376;-46
2022/08/29 02:10:01;;;;;;;11.30;8.53;;;18.20;99.90;;;;;;7378112;19;20383;-46
2022/08/29 02:12:31;;;;;;;9.03;7.87;;;17.70;99.90;;;;;;7374169;19;20380;-47
2022/08/29 02:15:03;;;;;;;7.80;7.00;;;17.90;99.90;;;;;;7373602;19;20372;-46
2022/08/29 02:17:33;;;;;;;9.13;7.90;;;17.90;99.90;;;;;;7376333;19;20930;-46
2022/08/29 02:20:04;;;;;;;9.30;7.20;;;17.80;99.90;;;;;;7380175;19;20948;-46
2022/08/29 02:22:34;;;;;;;13.90;8.20;;;17.90;99.90;;;;;;7375440;19;20475;-46
2022/08/29 02:25:40;;;;;;;10.80;7.50;;;17.90;99.90;;;;;;7374708;19;20383;-47
2022/08/29 02:27:59;;;;;;;9.57;7.70;;;18.00;99.90;;;;;;7373571;19;20492;-46
2022/08/29 02:30:29;;;;;;;10.30;7.50;;;17.80;99.90;;;;;;7374484;19;20364;-47
2022/08/29 02:32:58;;;;;;;9.77;7.80;;;17.90;99.90;;;;;;7373590;19;20922;-47
2022/08/29 02:35:28;;;;;;;14.07;8.40;;;18.00;99.90;;;;;;7375189;19;20731;-46
2022/08/29 02:37:57;;;;;;;12.20;7.37;;;17.80;99.90;;;;;;7373990;19;20455;-47
2022/08/29 02:40:30;;;;;;;10.27;8.33;;;17.70;99.90;;;;;;7376866;19;20943;-47
2022/08/29 02:43:00;;;;;;;8.70;7.27;;;17.60;99.90;;;;;;7382695;19;20380;-47
2022/08/29 02:45:30;;;;;;;9.57;7.63;;;17.80;99.90;;;;;;7381692;19;20729;-48
2022/08/29 02:48:00;;;;;;;10.10;7.80;;;18.00;99.90;;;;;;7383108;19;20380;-47
2022/08/29 02:50:29;;;;;;;10.10;7.33;;;17.60;99.90;;;;;;7387968;19;20427;-47
2022/08/29 02:53:01;;;;;;;9.67;7.00;;;17.70;99.90;;;;;;7378867;19;20375;-47
2022/08/29 02:55:33;;;;;;;11.30;8.07;;;17.80;99.90;;;;;;7383418;19;20408;-47
2022/08/29 02:58:03;;;;;;;9.90;7.70;;;17.80;99.90;;;;;;7376138;19;20825;-46
2022/08/29 03:00:34;;;;;;;10.80;8.20;;;17.70;99.90;;;;;;7371496;19;20431;-46
2022/08/29 03:03:04;;;;;;;13.50;7.83;;;17.50;99.90;;;;;;7381035;19;20407;-47
2022/08/29 03:05:36;;;;;;;10.77;8.47;;;17.50;99.90;;;;;;7381324;19;20391;-46
2022/08/29 03:08:09;;;;;;;11.17;9.27;;;17.30;99.90;;;;;;7373021;19;20379;-47
2022/08/29 03:10:42;;;;;;;9.73;8.10;;;17.40;99.90;;;;;;7381291;19;20383;-46
2022/08/29 03:13:13;;;;;;;10.20;7.83;;;17.40;99.90;;;;;;7377571;19;20443;-46
2022/08/29 03:15:42;;;;;;;12.97;8.33;;;17.20;99.90;;;;;;7381768;19;20368;-46
2022/08/29 03:18:13;;;;;;;11.03;8.23;;;17.20;99.90;;;;;;7380433;19;20376;-46
2022/08/29 03:20:45;;;;;;;11.80;9.53;;;17.40;99.90;;;;;;7378183;19;20442;-46
2022/08/29 03:23:14;;;;;;;10.77;9.60;;;17.60;99.90;;;;;;7383816;19;20371;-46
2022/08/29 03:25:46;;;;;;;17.33;9.67;;;17.70;99.90;;;;;;7383131;19;20380;-46
2022/08/29 03:28:16;;;;;;;11.00;8.70;;;17.70;99.90;;;;;;7383040;19;20743;-46
2022/08/29 03:30:46;;;;;;;12.07;9.33;;;17.50;99.90;;;;;;7375501;19;20408;-46
2022/08/29 03:33:15;;;;;;;12.37;7.80;;;17.50;99.90;;;;;;7379943;19;20368;-46
2022/08/29 03:35:45;;;;;;;11.73;8.70;;;17.50;99.90;;;;;;7382470;19;20420;-46
2022/08/29 03:38:14;;;;;;;12.73;8.60;;;17.60;99.90;;;;;;7380395;19;20405;-46
2022/08/29 03:40:46;;;;;;;10.60;7.67;;;17.60;99.90;;;;;;7381341;19;20387;-46
2022/08/29 03:43:20;;;;;;;12.97;8.30;;;17.70;99.90;;;;;;7381719;19;20407;-46
2022/08/29 03:45:50;;;;;;;11.23;8.27;;;17.50;99.90;;;;;;7383720;19;20391;-46
2022/08/29 03:48:19;;;;;;;9.73;7.53;;;17.30;99.90;;;;;;7379380;19;20396;-46
2022/08/29 03:50:49;;;;;;;10.20;9.03;;;17.30;99.90;;;;;;7378548;19;20426;-46
2022/08/29 03:53:19;;;;;;;10.00;8.03;;;17.40;99.90;;;;;;7377141;19;20372;-47
2022/08/29 03:55:51;;;;;;;11.30;8.63;;;17.50;99.90;;;;;;7379774;19;20369;-46
2022/08/29 03:58:20;;;;;;;10.80;8.20;;;17.50;99.90;;;;;;7380725;19;20380;-46
2022/08/29 04:00:50;;;;;;;11.97;8.50;;;17.40;99.90;;;;;;7373216;19;20427;-46
2022/08/29 04:03:19;;;;;;;11.10;8.40;;;17.30;99.90;;;;;;7377611;19;20372;-46
2022/08/29 04:05:49;;;;;;;12.80;7.73;;;17.00;99.90;;;;;;7379148;19;20909;-46
2022/08/29 04:08:21;;;;;;;11.13;7.73;;;16.90;99.90;;;;;;7371496;19;20372;-46
2022/08/29 04:10:53;;;;;;;9.63;7.97;;;17.10;99.90;;;;;;7377779;19;21107;-46
2022/08/29 04:13:23;;;;;;;8.93;8.03;;;17.10;99.90;;;;;;7379244;19;20368;-46
2022/08/29 04:15:55;;;;;;;10.47;8.50;;;17.10;99.90;;;;;;7374471;19;20741;-46
2022/08/29 04:18:27;;;;;;;10.90;8.53;;;17.00;99.90;;;;;;7381281;19;20376;-46
2022/08/29 04:21:04;;;;;;;11.17;8.87;;;17.00;99.90;;;;;;7379484;19;20360;-46
2022/08/29 04:23:34;;;;;;;9.40;8.30;;;17.00;99.90;;;;;;7378263;19;20722;-46
2022/08/29 04:26:15;;;;;;;10.73;8.40;;;16.90;99.90;;;;;;7382455;19;20372;-46
2022/08/29 04:28:45;;;;;;;15.13;9.17;;;16.80;99.90;;;;;;7381776;19;20416;-46
2022/08/29 04:31:18;;;;;;;10.53;7.90;;;17.00;99.90;;;;;;7369846;19;20380;-46
2022/08/29 04:33:48;;;;;;;11.30;8.43;;;17.10;99.90;;;;;;7371081;19;20428;-46
2022/08/29 04:36:18;;;;;;;11.00;8.67;;;17.10;99.90;;;;;;7373750;19;20921;-46
2022/08/29 04:38:50;;;;;;;10.67;7.93;;;17.10;99.90;;;;;;7376191;19;20738;-46
2022/08/29 04:41:22;;;;;;;13.10;9.17;;;16.90;99.90;;;;;;7384927;19;20936;-46
2022/08/29 04:43:52;;;;;;;12.70;8.37;;;16.90;99.90;;;;;;7385201;19;20926;-46
2022/08/29 04:46:21;;;;;;;11.13;7.80;;;17.00;99.90;;;;;;7387385;19;20383;-46
2022/08/29 04:48:53;;;;;;;10.63;8.63;;;16.90;99.90;;;;;;7383343;19;20934;-46
2022/08/29 04:51:24;;;;;;;14.10;9.80;;;17.00;99.90;;;;;;7382282;19;20379;-47
2022/08/29 04:53:56;;;;;;;10.50;7.23;;;16.90;99.90;;;;;;7376141;19;21139;-46
2022/08/29 04:56:28;;;;;;;11.00;8.33;;;16.70;99.90;;;;;;7380454;19;20942;-47
2022/08/29 04:58:58;;;;;;;12.77;7.60;;;16.90;99.90;;;;;;7378003;19;20424;-46
2022/08/29 05:01:27;;;;;;;10.57;8.20;;;17.10;99.90;;;;;;7370093;19;20433;-47
2022/08/29 05:03:57;;;;;;;13.30;8.07;;;17.20;99.90;;;;;;7377066;19;20380;-46
2022/08/29 05:06:27;;;;;;;9.00;7.03;;;17.30;99.90;;;;;;7383193;19;20399;-46
2022/08/29 05:08:59;;;;;;;10.37;7.27;;;17.40;99.90;;;;;;7383896;19;20379;-46
2022/08/29 05:11:33;;;;;;;9.70;8.40;;;17.40;99.90;;;;;;7382317;19;20392;-47
2022/08/29 05:14:03;;;;;;;9.43;8.50;;;17.40;99.90;;;;;;7385170;19;20388;-46
2022/08/29 05:16:35;;;;;;;9.37;7.07;;;17.40;99.90;;;;;;7382497;19;20476;-47
2022/08/29 05:19:07;;;;;;;11.00;7.90;;;17.20;99.90;;;;;;7382871;19;20908;-47
2022/08/29 05:21:39;;;;;;;9.47;7.63;;;17.20;99.90;;;;;;7384473;19;20376;-46
2022/08/29 05:24:11;;;;;;;12.97;8.70;;;17.00;99.90;;;;;;7379904;19;20373;-46
2022/08/29 05:26:45;;;;;;;8.77;7.87;;;17.20;99.90;;;;;;7382957;19;20913;-47
2022/08/29 05:29:15;;;;;;;10.90;6.80;;;17.40;99.90;;;;;;7386175;19;20376;-47
2022/08/29 05:31:46;;;;;;;10.67;8.07;;;17.50;99.90;;;;;;7383630;19;20368;-46
2022/08/29 05:34:17;;;;;;;8.93;7.97;;;17.70;99.90;;;;;;7386053;19;20770;-46
2022/08/29 05:36:46;;;;;;;10.63;7.80;;;17.80;99.90;;;;;;7380066;19;21263;-46
2022/08/29 05:39:16;;;;;;;11.23;7.93;;;17.90;99.90;;;;;;7382012;19;20391;-46
2022/08/29 05:41:50;;;;;;;13.43;8.33;;;17.90;99.90;;;;;;7383921;19;20379;-46
2022/08/29 05:44:20;;;;;;;12.97;9.67;;;17.80;99.90;;;;;;7385456;19;20383;-46
2022/08/29 05:46:50;;;;;;;9.43;8.43;;;17.60;99.90;;;;;;7383435;19;20380;-46
2022/08/29 05:49:19;;;;;;;10.50;8.47;;;17.60;99.90;;;;;;7383372;19;20956;-46
2022/08/29 05:51:49;;;;;;;10.83;8.60;;;17.80;99.90;;;;;;7381204;19;20933;-46
2022/08/29 05:54:19;;;;;;;12.03;9.30;;;17.80;99.90;;;;;;7382577;19;20919;-46
2022/08/29 05:56:51;;;;;;;10.83;8.70;;;17.90;99.90;;;;;;7382305;19;20725;-46
2022/08/29 05:59:21;;;;;;;10.43;8.73;;;17.60;99.90;;;;;;7373680;19;20412;-46
2022/08/29 06:01:51;;;;;;;14.27;9.93;;;17.50;99.90;;;;;;7383312;19;20440;-47
2022/08/29 06:04:20;;;;;;;10.70;8.20;;;17.70;99.90;;;;;;7381855;19;20451;-47
2022/08/29 06:06:50;;;;;;;10.90;9.67;;;17.80;99.90;;;;;;7376743;19;20942;-47
2022/08/29 06:09:19;;;;;;;15.17;9.40;;;18.00;99.90;;;;;;7383054;19;20387;-47
2022/08/29 06:11:53;;;;;;;9.83;7.90;;;18.10;99.90;;;;;;7381908;19;20803;-46
2022/08/29 06:14:23;;;;;;;12.47;9.60;;;18.20;99.90;;;;;;7377127;19;20386;-47
2022/08/29 06:16:53;;;;;;;10.93;8.80;;;18.30;99.90;;;;;;7390386;19;20770;-47
2022/08/29 06:19:23;;;;;;;15.80;10.43;;;18.30;99.90;;;;;;7387057;19;20380;-47
2022/08/29 06:21:52;;;;;;;12.97;8.77;;;18.30;99.90;;;;;;7390471;19;20372;-47
2022/08/29 06:24:22;;;;;;;13.73;9.33;;;18.50;99.90;;;;;;7386657;19;20917;-47
2022/08/29 06:26:54;;;;;;;12.37;9.90;;;18.70;99.90;;;;;;7390907;19;20755;-47
2022/08/29 06:29:25;;;;;;;12.40;9.23;;;18.90;99.90;;;;;;7392294;19;20372;-47
2022/08/29 06:31:55;;;;;;;11.90;9.70;;;19.20;99.90;;;;;;7391155;19;20379;-47
2022/08/29 06:34:25;;;;;;;14.37;8.80;;;19.40;99.90;;;;;;7391980;19;21088;-47
2022/08/29 06:36:55;;;;;;;11.70;9.20;;;19.50;99.90;;;;;;7384138;19;20918;-46
2022/08/29 06:39:24;;;;;;;15.33;8.23;;;19.60;99.90;;;;;;7388317;19;20939;-47
2022/08/29 06:41:56;;;;;;;9.63;8.37;;;19.70;99.90;;;;;;7389501;19;21353;-47
2022/08/29 06:44:29;;;;;;;11.40;9.20;;;19.80;99.90;;;;;;7389467;19;20372;-47
2022/08/29 06:46:59;;;;;;;19.43;8.70;;;20.00;99.90;;;;;;7389110;19;20775;-47
2022/08/29 06:49:31;;;;;;;12.40;9.37;;;20.20;99.90;;;;;;7391447;19;20380;-47
2022/08/29 06:52:00;;;;;;;12.83;8.47;;;20.20;99.90;;;;;;7386885;19;20380;-47
2022/08/29 06:54:31;;;;;;;8.67;7.77;;;20.20;99.90;;;;;;7388342;19;20376;-47
2022/08/29 06:57:03;;;;;;;13.37;9.00;;;20.40;99.90;;;;;;7390790;19;20376;-47
2022/08/29 06:59:34;;;;;;;13.47;8.73;;;20.70;99.90;;;;;;7389749;19;20367;-47
2022/08/29 07:02:04;;;;;;;16.03;7.80;;;20.90;99.90;;;;;;7386051;19;20439;-46
2022/08/29 07:04:33;;;;;;;8.50;6.90;;;21.00;98.50;;;;;;7388397;19;20407;-48
2022/08/29 07:07:04;;;;;;;10.47;7.87;;;21.20;97.70;;;;;;7387221;19;20376;-47
2022/08/29 07:09:33;;;;;;;11.63;9.23;;;21.40;96.40;;;;;;7389663;19;20380;-47
2022/08/29 07:12:07;;;;;;;12.17;9.10;;;21.50;94.60;;;;;;7385888;19;20899;-47
2022/08/29 07:14:36;;;;;;;11.60;8.10;;;21.70;94.40;;;;;;7390410;19;20895;-47
2022/08/29 07:17:08;;;;;;;11.93;7.87;;;21.90;92.20;;;;;;7387861;19;20791;-47
2022/08/29 07:19:38;;;;;;;14.13;8.37;;;22.00;91.80;;;;;;7380675;19;20412;-48
2022/08/29 07:22:08;;;;;;;10.33;7.63;;;22.20;90.50;;;;;;7389541;19;20372;-48
2022/08/29 07:24:37;;;;;;;8.60;7.80;;;22.30;90.60;;;;;;7381828;19;20375;-48
2022/08/29 07:27:10;;;;;;;8.60;7.20;;;22.40;89.10;;;;;;7387271;19;20405;-48
2022/08/29 07:29:41;;;;;;;7.77;6.97;;;22.60;86.80;;;;;;7388475;19;20384;-49
2022/08/29 07:32:10;;;;;;;8.83;6.90;;;22.70;86.50;;;;;;7389578;19;20364;-48
2022/08/29 07:34:40;;;;;;;8.93;6.60;;;22.80;84.50;;;;;;7385714;19;20369;-48
2022/08/29 07:37:09;;;;;;;8.23;6.03;;;22.90;83.50;;;;;;7386766;19;20387;-48
2022/08/29 07:39:39;;;;;;;16.47;8.47;;;23.00;82.90;;;;;;7385610;19;20384;-47
2022/08/29 07:42:11;;;;;;;8.47;6.60;;;23.10;80.90;;;;;;7386855;19;20402;-47
2022/08/29 07:44:41;;;;;;;8.13;6.00;;;23.30;80.60;;;;;;7388179;19;20473;-47
2022/08/29 07:47:10;;;;;;;9.30;7.00;;;23.30;80.60;;;;;;7382356;19;21138;-47
2022/08/29 07:49:43;;;;;;;8.27;6.97;;;23.50;79.60;;;;;;7387417;19;20368;-47
2022/08/29 07:52:13;;;;;;;9.07;7.83;;;23.70;77.90;;;;;;7389379;19;21423;-48
2022/08/29 07:54:42;;;;;;;12.27;7.70;;;23.70;77.60;;;;;;7387118;19;20463;-47
2022/08/29 07:57:18;;;;;;;8.77;7.87;;;23.90;75.80;;;;;;7386791;19;20384;-47
2022/08/29 07:59:47;;;;;;;6.73;5.50;;;24.00;75.80;;;;;;7384508;19;20787;-47
2022/08/29 08:02:17;;;;;;;11.67;8.40;;;24.20;75.00;;;;;;7383175;19;20793;-47
2022/08/29 08:04:47;;;;;;;9.20;7.10;;;24.50;73.90;;;;;;7386531;19;20369;-47
2022/08/29 08:07:17;;;;;;;8.47;6.40;;;24.70;71.90;;;;;;7383878;19;20962;-47
2022/08/29 08:09:47;;;;;;;8.60;6.80;;;24.80;70.60;;;;;;7387748;19;20766;-49
2022/08/29 08:12:19;;;;;;;10.13;7.63;;;25.00;69.60;;;;;;7385705;19;20913;-48
2022/08/29 08:14:49;;;;;;;10.87;7.87;;;25.10;67.70;;;;;;7385378;19;20481;-48
2022/08/29 08:17:18;;;;;;;7.23;5.40;;;25.10;68.00;;;;;;7380323;19;20375;-48
2022/08/29 08:19:48;;;;;;;9.97;6.50;;;25.30;68.40;;;;;;7386261;19;20469;-48
2022/08/29 08:22:17;;;;;;;9.90;7.23;;;25.60;66.60;;;;;;7384516;19;20380;-48
2022/08/29 08:24:47;;;;;;;9.30;6.60;;;25.90;65.00;;;;;;7385469;19;20368;-48
2022/08/29 08:27:19;;;;;;;9.10;5.90;;;26.10;64.60;;;;;;7387470;19;20387;-48
2022/08/29 08:29:49;;;;;;;7.70;6.00;;;26.20;63.80;;;;;;7384552;19;20400;-48
2022/08/29 08:32:18;;;;;;;9.67;6.00;;;26.50;63.10;;;;;;7385178;19;20379;-48
2022/08/29 08:34:48;;;;;;;7.47;6.43;;;26.80;61.30;;;;;;7384405;19;20408;-48
2022/08/29 08:37:18;;;;;;;7.50;6.67;;;27.00;60.00;;;;;;7385858;19;20377;-48
2022/08/29 08:39:47;;;;;;;8.47;6.47;;;27.20;59.20;;;;;;7385513;19;20999;-48
2022/08/29 08:42:28;;;;;;;8.63;5.93;;;27.50;59.20;;;;;;7387099;19;20380;-49
2022/08/29 08:45:08;;;;;;;8.03;6.70;;;27.70;57.60;;;;;;7384294;19;20388;-49
2022/08/29 08:47:44;;;;;;;8.67;5.93;;;28.00;57.40;;;;;;7385860;19;20404;-49
2022/08/29 08:50:19;;;;;;;7.83;7.00;;;28.30;57.10;;;;;;7385269;19;20869;-48
2022/08/29 08:52:57;;;;;;;9.17;8.17;;;28.60;56.20;;;;;;7384401;19;20914;-48
2022/08/29 08:55:43;;;;;;;8.20;5.30;;;28.90;55.50;;;;;;7383564;19;20387;-48
2022/08/29 08:58:25;;;;;;;6.60;5.60;;;29.30;54.50;;;;;;7382735;19;20414;-48
2022/08/29 09:01:02;;;;;;;10.40;6.13;;;29.40;54.10;;;;;;7382541;19;20451;-48
2022/08/29 09:04:05;;;;;;;7.77;6.20;;;29.60;52.70;;;;;;7386706;19;20935;-48
2022/08/29 09:06:53;;;;;;;9.50;6.60;;;30.10;52.20;;;;;;7382110;19;20392;-48
2022/08/29 09:09:33;;;;;;;8.33;6.90;;;30.40;51.40;;;;;;7382152;19;20387;-48
2022/08/29 09:12:15;;;;;;;6.23;5.63;;;30.60;50.20;;;;;;7383938;19;20782;-46
2022/08/29 09:15:02;;;;;;;6.77;5.50;;;31.00;50.10;;;;;;7383674;19;20390;-48
2022/08/29 09:17:41;;;;;;;6.90;5.27;;;31.50;48.80;;;;;;7380674;19;20406;-48
2022/08/29 09:20:14;;;;;;;7.80;6.17;;;31.80;48.30;;;;;;7383052;19;20387;-49
2022/08/29 09:22:51;;;;;;;5.23;4.73;;;32.10;47.10;;;;;;7381967;19;20423;-49
2022/08/29 09:25:22;;;;;;;7.77;6.27;;;32.30;47.20;;;;;;7384946;19;20383;-49
2022/08/29 09:27:52;;;;;;;5.10;4.60;;;32.60;46.10;;;;;;7383575;19;20925;-49
2022/08/29 09:30:27;;;;;;;6.70;6.03;;;32.80;46.10;;;;;;7385317;19;20802;-49
2022/08/29 09:33:03;;;;;;;6.87;5.10;;;33.20;44.80;;;;;;7384368;19;20498;-49
2022/08/29 09:35:39;;;;;;;8.40;5.00;;;33.30;43.90;;;;;;7382684;19;20376;-49
2022/08/29 09:38:10;;;;;;;5.57;4.80;;;33.60;44.40;;;;;;7384741;19;20368;-49
2022/08/29 09:40:53;;;;;;;8.67;5.03;;;33.70;44.00;;;;;;7382566;19;20910;-49
2022/08/29 09:43:28;;;;;;;7.90;4.97;;;34.10;43.80;;;;;;7378543;19;20372;-49
2022/08/29 09:46:19;;;;;;;5.93;4.57;;;34.50;42.80;;;;;;7384406;19;20388;-49
2022/08/29 09:49:02;;;;;;;5.90;5.10;;;34.60;42.00;;;;;;7379383;19;20372;-49
2022/08/29 09:51:36;;;;;;;5.60;4.63;;;34.50;42.20;;;;;;7381532;19;20496;-49
2022/08/29 09:54:16;;;;;;;5.97;5.37;;;34.90;41.20;;;;;;7379565;19;20372;-49
2022/08/29 09:56:52;;;;;;;8.23;6.93;;;35.20;40.60;;;;;;7384182;19;20380;-49
2022/08/29 09:59:27;;;;;;;5.33;4.40;;;35.30;40.10;;;;;;7380096;19;20906;-49
2022/08/29 10:02:26;;;;;;;7.17;4.30;;;35.80;40.00;;;;;;7381418;19;20913;-49
2022/08/29 10:04:58;;;;;;;5.40;4.10;;;36.00;39.30;;;;;;7383522;19;20780;-50
2022/08/29 10:07:32;;;;;;;5.00;4.40;;;35.90;39.70;;;;;;7381937;19;20463;-48
2022/08/29 10:10:07;;;;;;;7.23;5.00;;;36.00;39.10;;;;;;7383275;19;20372;-48
2022/08/29 10:12:51;;;;;;;5.13;4.17;;;36.40;37.50;;;;;;7383855;19;21056;-48
2022/08/29 10:15:26;;;;;;;6.30;4.20;;;36.70;38.60;;;;;;7380518;19;20408;-48
2022/08/29 10:20:56;;;;;;;4.50;4.10;;;37.00;36.50;;;;;;7381473;19;20419;-47
2022/08/29 10:23:32;;;;;;;5.60;4.03;;;37.30;35.90;;;;;;7381456;19;20376;-47
2022/08/29 10:26:11;;;;;;;3.60;3.30;;;37.70;36.10;;;;;;7383694;19;20379;-48
2022/08/29 10:28:50;;;;;;;4.03;3.37;;;37.90;36.00;;;;;;7383227;19;20375;-47
2022/08/29 10:31:27;;;;;;;4.33;3.63;;;38.10;34.80;;;;;;7379506;19;20382;-47
2022/08/29 10:34:24;;;;;;;4.17;3.77;;;38.40;35.10;;;;;;7380014;19;20364;-47
2022/08/29 10:37:01;;;;;;;4.97;3.50;;;39.00;34.40;;;;;;7383618;19;20386;-48
2022/08/29 10:39:40;;;;;;;4.90;3.70;;;39.10;34.00;;;;;;7379339;19;20856;-47
2022/08/29 10:42:14;;;;;;;4.77;3.77;;;39.20;33.80;;;;;;7381722;19;20938;-48
2022/08/29 10:44:59;;;;;;;4.60;3.77;;;39.30;32.70;;;;;;7379852;19;20372;-48
2022/08/29 10:47:34;;;;;;;5.00;4.00;;;39.30;33.70;;;;;;7381586;19;20372;-47
2022/08/29 10:50:36;;;;;;;3.80;3.50;;;39.80;32.50;;;;;;7382556;19;20387;-48
2022/08/29 10:53:16;;;;;;;4.90;4.40;;;39.80;32.70;;;;;;7382640;19;20415;-47
2022/08/29 10:55:55;;;;;;;4.80;4.03;;;39.40;33.00;;;;;;7382098;19;20895;-47
2022/08/29 10:58:47;;;;;;;7.83;4.40;;;39.60;33.20;;;;;;7381504;19;20404;-47
2022/08/29 11:01:24;;;;;;;4.70;4.17;;;39.80;33.00;;;;;;7379249;19;20455;-48
2022/08/29 11:04:06;;;;;;;4.60;3.77;;;39.60;32.30;;;;;;7388863;19;20726;-48
2022/08/29 11:06:46;;;;;;;4.70;4.23;;;39.60;31.50;;;;;;7385896;19;20392;-47
2022/08/29 11:09:20;;;;;;;4.37;3.97;;;39.50;32.20;;;;;;7385275;19;20408;-48
2022/08/29 11:12:05;;;;;;;4.20;3.80;;;39.60;31.70;;;;;;7386999;19;20386;-47
2022/08/29 11:14:39;;;;;;;5.37;4.50;;;39.10;32.00;;;;;;7390078;19;20997;-48
2022/08/29 11:17:11;;;;;;;5.07;4.17;;;39.00;32.00;;;;;;7387386;19;20364;-47
2022/08/29 11:19:51;;;;;;;4.17;3.77;;;39.50;32.70;;;;;;7387575;19;20383;-48
2022/08/29 11:22:28;;;;;;;4.80;4.30;;;39.90;31.30;;;;;;7386923;19;20384;-49
2022/08/29 11:25:05;;;;;;;5.00;4.20;;;39.60;32.30;;;;;;7383740;19;20729;-49
2022/08/29 11:27:45;;;;;;;4.97;4.47;;;40.00;32.40;;;;;;7385600;19;20925;-49
2022/08/29 11:30:22;;;;;;;4.80;4.30;;;40.00;31.20;;;;;;7387086;19;20448;-49
2022/08/29 11:33:00;;;;;;;5.43;4.33;;;39.40;33.00;;;;;;7383254;19;20388;-49
2022/08/29 11:35:46;;;;;;;5.90;4.57;;;39.60;32.40;;;;;;7388468;19;20420;-49
2022/08/29 11:38:57;;;;;;;4.20;3.80;;;40.20;31.50;;;;;;7387589;19;20379;-49
2022/08/29 11:41:37;;;;;;;3.83;3.53;;;40.80;30.90;;;;;;7387034;19;20451;-49
2022/08/29 11:44:20;;;;;;;4.70;3.93;;;40.20;29.90;;;;;;7386833;19;20923;-49
2022/08/29 11:46:53;;;;;;;4.30;3.60;;;39.40;31.60;;;;;;7389134;19;20380;-49
2022/08/29 11:49:40;;;;;;;6.43;4.13;;;37.50;32.70;;;;;;7389400;19;20806;-48
2022/08/29 11:52:25;;;;;;;8.80;4.20;;;36.30;36.10;;;;;;7384289;19;20462;-47
2022/08/29 11:55:24;;;;;;;5.43;4.10;;;35.20;36.50;;;;;;7385875;19;20380;-47
2022/08/29 11:58:03;;;;;;;5.17;4.67;;;34.20;38.50;;;;;;7385127;19;20419;-50
2022/08/29 12:00:50;;;;;;;7.30;4.43;;;35.60;35.90;;;;;;7380734;19;20443;-48
2022/08/29 12:03:53;;;;;;;4.60;3.90;;;37.10;34.50;;;;;;7383884;19;20401;-48
2022/08/29 12:06:56;;;;;;;5.60;4.47;;;38.40;33.70;;;;;;7386371;19;20394;-48
2022/08/29 12:09:51;;;;;;;5.43;4.07;;;37.90;33.90;;;;;;7386691;19;20395;-48
2022/08/29 12:12:46;;;;;;;4.73;4.00;;;36.80;34.40;;;;;;7383481;19;20384;-47
2022/08/29 12:16:01;;;;;;;4.80;3.60;;;36.90;34.10;;;;;;7385249;19;20925;-50
2022/08/29 12:18:49;;;;;;;4.30;3.90;;;37.10;33.00;;;;;;7385792;19;20382;-47
2022/08/29 12:21:48;;;;;;;6.53;4.27;;;36.80;33.90;;;;;;7385274;19;21368;-48
2022/08/29 12:24:40;;;;;;;3.83;3.53;;;36.60;33.60;;;;;;7385267;19;20918;-48
2022/08/29 12:27:47;;;;;;;4.50;3.90;;;37.30;34.30;;;;;;7386555;19;20383;-48
2022/08/29 12:30:21;;;;;;;4.43;3.60;;;38.10;33.20;;;;;;7384935;19;20383;-49
2022/08/29 12:33:06;;;;;;;4.63;3.30;;;39.00;32.00;;;;;;7382003;19;20360;-50
2022/08/29 12:36:14;;;;;;;4.10;3.73;;;39.80;31.40;;;;;;7387508;19;20906;-50
2022/08/29 12:38:54;;;;;;;4.27;3.87;;;40.30;30.40;;;;;;7380417;19;20418;-50
2022/08/29 12:41:45;;;;;;;3.47;3.17;;;40.50;30.80;;;;;;7385756;19;20380;-50
2022/08/29 12:44:18;;;;;;;4.33;3.57;;;41.20;28.70;;;;;;7384950;19;20941;-50
2022/08/29 12:46:55;;;;;;;5.90;3.90;;;41.20;28.10;;;;;;7383269;19;20387;-49
2022/08/29 12:49:30;;;;;;;4.00;3.60;;;40.90;28.80;;;;;;7383460;19;21182;-49
2022/08/29 12:52:03;;;;;;;3.40;3.10;;;41.10;28.90;;;;;;7386177;19;20372;-50
2022/08/29 12:54:37;;;;;;;4.27;3.87;;;40.80;29.10;;;;;;7386936;19;20457;-50
2022/08/29 12:57:09;;;;;;;4.33;3.30;;;40.80;28.80;;;;;;7386389;19;20695;-50
2022/08/29 12:59:46;;;;;;;3.47;3.17;;;40.70;30.00;;;;;;7380634;19;20451;-50
2022/08/29 13:02:29;;;;;;;3.53;3.17;;;41.00;29.30;;;;;;7384723;19;20442;-50
2022/08/29 13:04:59;;;;;;;3.50;3.20;;;41.80;28.80;;;;;;7384591;19;20391;-50
2022/08/29 13:07:30;;;;;;;4.03;3.63;;;42.20;28.70;;;;;;7386025;19;20377;-50
2022/08/29 13:10:01;;;;;;;3.83;3.40;;;41.70;28.50;;;;;;7385621;19;20472;-50
2022/08/29 13:12:33;;;;;;;4.13;3.73;;;41.50;29.00;;;;;;7382972;19;20376;-50
2022/08/29 13:15:08;;;;;;;6.03;3.97;;;41.40;29.20;;;;;;7379050;19;20381;-50
2022/08/29 13:17:42;;;;;;;3.97;3.27;;;41.50;28.60;;;;;;7357272;19;20436;-50
2022/08/29 13:20:42;;;;;;;3.70;3.33;;;41.90;28.30;;;;;;7383838;19;20715;-50
2022/08/29 13:23:20;;;;;;;3.40;2.97;;;41.90;28.20;;;;;;7384210;19;20387;-50
2022/08/29 13:25:57;;;;;;;3.80;3.50;;;41.30;29.40;;;;;;7380972;19;20921;-50